sensor_id;sensor_type;location;lat;lon;timestamp;pressure;altitude;pressure_sealevel;temperature;humidity
7614;BME280;3848;42.016;23.098;2023-09-08T00:02:27;97409.09;;;21.14;100.00
7614;BME280;3848;42.016;23.098;2023-09-08T00:04:55;97398.28;;;21.06;100.00
7614;BME280;3848;42.016;23.098;2023-09-08T00:07:22;97407.44;;;21.13;100.00
7614;BME280;3848;42.016;23.098;2023-09-08T00:09:49;97413.72;;;21.08;100.00
7614;BME280;3848;42.016;23.098;2023-09-08T00:12:16;97407.72;;;21.07;100.00
7614;BME280;3848;42.016;23.098;2023-09-08T00:14:43;97409.38;;;21.08;100.00
7614;BME280;3848;42.016;23.098;2023-09-08T00:17:09;97393.38;;;21.00;100.00
7614;BME280;3848;42.016;23.098;2023-09-08T00:19:36;97404.38;;;21.05;100.00
7614;BME280;3848;42.016;23.098;2023-09-08T00:22:05;97392.00;;;20.93;100.00
7614;BME280;3848;42.016;23.098;2023-09-08T00:24:32;97406.19;;;21.03;100.00
7614;BME280;3848;42.016;23.098;2023-09-08T00:26:59;97399.31;;;21.02;100.00
7614;BME280;3848;42.016;23.098;2023-09-08T00:29:26;97404.53;;;21.00;100.00
7614;BME280;3848;42.016;23.098;2023-09-08T00:31:53;97397.91;;;20.95;100.00
7614;BME280;3848;42.016;23.098;2023-09-08T00:34:19;97393.94;;;20.88;100.00
7614;BME280;3848;42.016;23.098;2023-09-08T00:36:46;97376.97;;;20.82;100.00
7614;BME280;3848;42.016;23.098;2023-09-08T00:39:14;97395.63;;;20.89;100.00
7614;BME280;3848;42.016;23.098;2023-09-08T00:41:41;97385.50;;;20.84;100.00
7614;BME280;3848;42.016;23.098;2023-09-08T00:44:08;97387.09;;;20.87;100.00
7614;BME280;3848;42.016;23.098;2023-09-08T00:46:36;97391.75;;;20.79;100.00
7614;BME280;3848;42.016;23.098;2023-09-08T00:49:04;97390.78;;;20.81;100.00
7614;BME280;3848;42.016;23.098;2023-09-08T00:51:32;97396.75;;;20.83;100.00
7614;BME280;3848;42.016;23.098;2023-09-08T00:54:00;97394.09;;;20.85;100.00
7614;BME280;3848;42.016;23.098;2023-09-08T00:56:29;97387.09;;;20.87;100.00
7614;BME280;3848;42.016;23.098;2023-09-08T00:58:56;97361.47;;;20.63;100.00
7614;BME280;3848;42.016;23.098;2023-09-08T01:01:23;97388.91;;;20.85;100.00
7614;BME280;3848;42.016;23.098;2023-09-08T01:03:50;97388.78;;;20.88;100.00
7614;BME280;3848;42.016;23.098;2023-09-08T01:06:17;97387.88;;;20.89;100.00
7614;BME280;3848;42.016;23.098;2023-09-08T01:08:44;97381.72;;;20.91;100.00
7614;BME280;3848;42.016;23.098;2023-09-08T01:11:11;97392.59;;;20.98;100.00
7614;BME280;3848;42.016;23.098;2023-09-08T01:13:39;97385.63;;;21.00;100.00
7614;BME280;3848;42.016;23.098;2023-09-08T01:16:06;97382.97;;;21.01;100.00
7614;BME280;3848;42.016;23.098;2023-09-08T01:18:33;97368.72;;;20.93;100.00
7614;BME280;3848;42.016;23.098;2023-09-08T01:24:11;97363.94;;;21.04;100.00
7614;BME280;3848;42.016;23.098;2023-09-08T01:26:45;97366.78;;;20.98;100.00
7614;BME280;3848;42.016;23.098;2023-09-08T01:29:13;97370.41;;;20.94;100.00
7614;BME280;3848;42.016;23.098;2023-09-08T01:31:41;97371.94;;;20.98;100.00
7614;BME280;3848;42.016;23.098;2023-09-08T01:34:08;97367.59;;;20.98;100.00
7614;BME280;3848;42.016;23.098;2023-09-08T01:36:35;97373.47;;;21.02;100.00
7614;BME280;3848;42.016;23.098;2023-09-08T01:39:03;97355.88;;;20.91;100.00
7614;BME280;3848;42.016;23.098;2023-09-08T01:41:30;97380.34;;;21.03;100.00
7614;BME280;3848;42.016;23.098;2023-09-08T01:43:58;97369.94;;;21.05;100.00
7614;BME280;3848;42.016;23.098;2023-09-08T01:46:25;97380.06;;;21.09;100.00
7614;BME280;3848;42.016;23.098;2023-09-08T01:48:52;97383.47;;;21.10;100.00
7614;BME280;3848;42.016;23.098;2023-09-08T01:51:18;97388.13;;;21.01;100.00
7614;BME280;3848;42.016;23.098;2023-09-08T01:53:45;97375.28;;;20.81;100.00
7614;BME280;3848;42.016;23.098;2023-09-08T01:56:12;97379.19;;;20.71;100.00
7614;BME280;3848;42.016;23.098;2023-09-08T01:58:38;97387.00;;;20.69;100.00
7614;BME280;3848;42.016;23.098;2023-09-08T02:01:06;97385.63;;;20.62;100.00
7614;BME280;3848;42.016;23.098;2023-09-08T02:03:33;97383.22;;;20.58;100.00
7614;BME280;3848;42.016;23.098;2023-09-08T02:06:00;97380.16;;;20.50;100.00
7614;BME280;3848;42.016;23.098;2023-09-08T02:08:27;97382.38;;;20.37;100.00
7614;BME280;3848;42.016;23.098;2023-09-08T02:10:53;97385.38;;;20.28;100.00
7614;BME280;3848;42.016;23.098;2023-09-08T02:13:20;97381.41;;;20.19;100.00
7614;BME280;3848;42.016;23.098;2023-09-08T02:15:47;97381.88;;;20.08;100.00
7614;BME280;3848;42.016;23.098;2023-09-08T02:18:15;97384.13;;;19.96;100.00
7614;BME280;3848;42.016;23.098;2023-09-08T02:20:42;97348.44;;;19.65;100.00
7614;BME280;3848;42.016;23.098;2023-09-08T02:23:08;97375.16;;;19.84;100.00
7614;BME280;3848;42.016;23.098;2023-09-08T02:25:35;97382.06;;;19.84;100.00
7614;BME280;3848;42.016;23.098;2023-09-08T02:28:02;97378.84;;;19.78;100.00
7614;BME280;3848;42.016;23.098;2023-09-08T02:30:29;97374.31;;;19.84;100.00
7614;BME280;3848;42.016;23.098;2023-09-08T02:32:56;97373.22;;;19.89;100.00
7614;BME280;3848;42.016;23.098;2023-09-08T02:35:24;97374.06;;;19.90;100.00
7614;BME280;3848;42.016;23.098;2023-09-08T02:37:51;97367.94;;;19.92;100.00
7614;BME280;3848;42.016;23.098;2023-09-08T02:40:17;97372.31;;;19.90;100.00
7614;BME280;3848;42.016;23.098;2023-09-08T02:42:45;97368.97;;;19.88;100.00
7614;BME280;3848;42.016;23.098;2023-09-08T02:45:12;97362.28;;;19.84;100.00
7614;BME280;3848;42.016;23.098;2023-09-08T02:47:39;97360.97;;;19.94;100.00
7614;BME280;3848;42.016;23.098;2023-09-08T02:50:06;97371.22;;;19.96;100.00
7614;BME280;3848;42.016;23.098;2023-09-08T02:52:34;97362.72;;;19.94;100.00
7614;BME280;3848;42.016;23.098;2023-09-08T02:55:01;97364.47;;;19.93;100.00
7614;BME280;3848;42.016;23.098;2023-09-08T02:57:28;97359.28;;;19.93;100.00
7614;BME280;3848;42.016;23.098;2023-09-08T02:59:55;97351.63;;;19.92;100.00
7614;BME280;3848;42.016;23.098;2023-09-08T03:02:22;97362.00;;;19.90;100.00
7614;BME280;3848;42.016;23.098;2023-09-08T03:04:49;97351.50;;;19.95;100.00
7614;BME280;3848;42.016;23.098;2023-09-08T03:07:16;97347.84;;;20.00;100.00
7614;BME280;3848;42.016;23.098;2023-09-08T03:09:44;97337.69;;;19.96;100.00
7614;BME280;3848;42.016;23.098;2023-09-08T03:12:12;97329.19;;;19.94;100.00
7614;BME280;3848;42.016;23.098;2023-09-08T03:14:39;97349.25;;;20.07;100.00
7614;BME280;3848;42.016;23.098;2023-09-08T03:17:05;97337.25;;;20.06;100.00
7614;BME280;3848;42.016;23.098;2023-09-08T03:19:32;97337.13;;;20.09;100.00
7614;BME280;3848;42.016;23.098;2023-09-08T03:21:59;97344.78;;;20.11;100.00
7614;BME280;3848;42.016;23.098;2023-09-08T03:24:25;97344.78;;;20.11;100.00
7614;BME280;3848;42.016;23.098;2023-09-08T03:26:54;97332.09;;;20.06;100.00
7614;BME280;3848;42.016;23.098;2023-09-08T03:29:21;97336.34;;;20.07;100.00
7614;BME280;3848;42.016;23.098;2023-09-08T03:31:48;97337.25;;;20.06;100.00
7614;BME280;3848;42.016;23.098;2023-09-08T03:34:15;97326.53;;;19.95;100.00
7614;BME280;3848;42.016;23.098;2023-09-08T03:36:43;97344.59;;;19.95;100.00
7614;BME280;3848;42.016;23.098;2023-09-08T03:39:09;97330.41;;;19.85;100.00
7614;BME280;3848;42.016;23.098;2023-09-08T03:41:36;97348.28;;;19.90;100.00
7614;BME280;3848;42.016;23.098;2023-09-08T03:44:05;97342.53;;;19.83;100.00
7614;BME280;3848;42.016;23.098;2023-09-08T03:46:31;97342.66;;;19.80;100.00
7614;BME280;3848;42.016;23.098;2023-09-08T03:48:58;97345.34;;;19.77;100.00
7614;BME280;3848;42.016;23.098;2023-09-08T03:51:26;97349.88;;;19.72;100.00
7614;BME280;3848;42.016;23.098;2023-09-08T03:53:53;97348.19;;;19.71;100.00
7614;BME280;3848;42.016;23.098;2023-09-08T03:56:20;97349.16;;;19.68;100.00
7614;BME280;3848;42.016;23.098;2023-09-08T03:58:47;97350.91;;;19.68;100.00
7614;BME280;3848;42.016;23.098;2023-09-08T04:01:15;97347.63;;;19.64;100.00
7614;BME280;3848;42.016;23.098;2023-09-08T04:03:42;97362.00;;;19.70;100.00
7614;BME280;3848;42.016;23.098;2023-09-08T04:06:09;97355.41;;;19.63;100.00
7614;BME280;3848;42.016;23.098;2023-09-08T04:08:36;97368.44;;;19.60;100.00
7614;BME280;3848;42.016;23.098;2023-09-08T04:11:03;97364.38;;;19.53;100.00
7614;BME280;3848;42.016;23.098;2023-09-08T04:13:30;97369.66;;;19.49;100.00
7614;BME280;3848;42.016;23.098;2023-09-08T04:15:56;97373.25;;;19.45;100.00
7614;BME280;3848;42.016;23.098;2023-09-08T04:18:25;97351.44;;;19.32;100.00
7614;BME280;3848;42.016;23.098;2023-09-08T04:20:51;97375.06;;;19.43;100.00
7614;BME280;3848;42.016;23.098;2023-09-08T04:23:18;97369.97;;;19.42;100.00
7614;BME280;3848;42.016;23.098;2023-09-08T04:25:45;97374.34;;;19.40;100.00
7614;BME280;3848;42.016;23.098;2023-09-08T04:28:12;97214.28;;;18.38;100.00
7614;BME280;3848;42.016;23.098;2023-09-08T04:30:39;97376.38;;;19.32;100.00
7614;BME280;3848;42.016;23.098;2023-09-08T04:33:06;97380.69;;;19.31;100.00
7614;BME280;3848;42.016;23.098;2023-09-08T04:35:34;97366.72;;;19.15;100.00
7614;BME280;3848;42.016;23.098;2023-09-08T04:38:01;97384.66;;;19.18;100.00
7614;BME280;3848;42.016;23.098;2023-09-08T04:40:27;97385.94;;;19.06;100.00
7614;BME280;3848;42.016;23.098;2023-09-08T04:42:54;97390.25;;;19.06;100.00
7614;BME280;3848;42.016;23.098;2023-09-08T04:45:21;97388.75;;;19.00;100.00
7614;BME280;3848;42.016;23.098;2023-09-08T04:47:48;97389.47;;;19.04;100.00
7614;BME280;3848;42.016;23.098;2023-09-08T04:50:15;97388.47;;;19.08;100.00
7614;BME280;3848;42.016;23.098;2023-09-08T04:52:43;97384.31;;;19.04;100.00
7614;BME280;3848;42.016;23.098;2023-09-08T04:55:10;97383.47;;;19.03;100.00
7614;BME280;3848;42.016;23.098;2023-09-08T04:57:36;97398.53;;;19.14;100.00
7614;BME280;3848;42.016;23.098;2023-09-08T05:00:04;97358.75;;;18.99;100.00
7614;BME280;3848;42.016;23.098;2023-09-08T05:02:32;97393.28;;;19.17;100.00
7614;BME280;3848;42.016;23.098;2023-09-08T05:04:58;97394.94;;;19.18;100.00
7614;BME280;3848;42.016;23.098;2023-09-08T05:07:26;97394.91;;;19.19;100.00
7614;BME280;3848;42.016;23.098;2023-09-08T05:09:54;97382.84;;;19.20;100.00
7614;BME280;3848;42.016;23.098;2023-09-08T05:12:21;97401.53;;;19.25;100.00
7614;BME280;3848;42.016;23.098;2023-09-08T05:14:48;97393.69;;;19.28;100.00
7614;BME280;3848;42.016;23.098;2023-09-08T05:17:21;97389.56;;;19.24;100.00
7614;BME280;3848;42.016;23.098;2023-09-08T05:19:48;97388.19;;;19.37;100.00
7614;BME280;3848;42.016;23.098;2023-09-08T05:22:14;97387.16;;;19.41;100.00
7614;BME280;3848;42.016;23.098;2023-09-08T05:24:41;97394.78;;;19.44;100.00
7614;BME280;3848;42.016;23.098;2023-09-08T05:27:09;97382.97;;;19.39;100.00
7614;BME280;3848;42.016;23.098;2023-09-08T05:29:36;97403.03;;;19.53;100.00
7614;BME280;3848;42.016;23.098;2023-09-08T05:32:03;97399.59;;;19.54;100.00
7614;BME280;3848;42.016;23.098;2023-09-08T05:34:30;97402.72;;;19.62;100.00
7614;BME280;3848;42.016;23.098;2023-09-08T05:36:57;97407.88;;;19.62;100.00
7614;BME280;3848;42.016;23.098;2023-09-08T05:39:24;97410.34;;;19.65;100.00
7614;BME280;3848;42.016;23.098;2023-09-08T05:41:51;97410.22;;;19.68;100.00
7614;BME280;3848;42.016;23.098;2023-09-08T05:44:19;97409.94;;;19.74;100.00
7614;BME280;3848;42.016;23.098;2023-09-08T05:46:46;97403.00;;;19.76;100.00
7614;BME280;3848;42.016;23.098;2023-09-08T05:49:13;97397.84;;;19.76;100.00
7614;BME280;3848;42.016;23.098;2023-09-08T05:51:40;97398.75;;;19.95;100.00
7614;BME280;3848;42.016;23.098;2023-09-08T05:54:07;97404.41;;;20.05;100.00
7614;BME280;3848;42.016;23.098;2023-09-08T05:56:34;97373.03;;;19.94;100.00
7614;BME280;3848;42.016;23.098;2023-09-08T05:59:01;97408.97;;;20.19;100.00
7614;BME280;3848;42.016;23.098;2023-09-08T06:01:29;97418.00;;;20.29;100.00
7614;BME280;3848;42.016;23.098;2023-09-08T06:03:56;97415.03;;;20.38;100.00
7614;BME280;3848;42.016;23.098;2023-09-08T06:06:23;97408.97;;;20.39;100.00
7614;BME280;3848;42.016;23.098;2023-09-08T06:08:50;97421.88;;;20.59;100.00
7614;BME280;3848;42.016;23.098;2023-09-08T06:11:16;97427.50;;;20.69;100.00
7614;BME280;3848;42.016;23.098;2023-09-08T06:13:43;97424.84;;;20.70;100.00
7614;BME280;3848;42.016;23.098;2023-09-08T06:16:10;97418.63;;;20.75;100.00
7614;BME280;3848;42.016;23.098;2023-09-08T06:18:38;97422.50;;;20.85;100.00
7614;BME280;3848;42.016;23.098;2023-09-08T06:21:06;97370.22;;;20.59;100.00
7614;BME280;3848;42.016;23.098;2023-09-08T06:23:33;97415.72;;;21.01;100.00
7614;BME280;3848;42.016;23.098;2023-09-08T06:26:00;97423.63;;;21.17;100.00
7614;BME280;3848;42.016;23.098;2023-09-08T06:28:27;97430.94;;;21.27;100.00
7614;BME280;3848;42.016;23.098;2023-09-08T06:30:54;97435.53;;;21.40;100.00
7614;BME280;3848;42.016;23.098;2023-09-08T06:33:21;97427.97;;;21.54;100.00
7614;BME280;3848;42.016;23.098;2023-09-08T06:35:50;97419.97;;;21.58;100.00
7614;BME280;3848;42.016;23.098;2023-09-08T06:38:17;97431.50;;;21.70;100.00
7614;BME280;3848;42.016;23.098;2023-09-08T06:40:43;97433.63;;;21.79;100.00
7614;BME280;3848;42.016;23.098;2023-09-08T06:43:10;97435.72;;;21.90;100.00
7614;BME280;3848;42.016;23.098;2023-09-08T06:45:37;97419.38;;;21.89;100.00
7614;BME280;3848;42.016;23.098;2023-09-08T06:48:05;97423.84;;;22.03;100.00
7614;BME280;3848;42.016;23.098;2023-09-08T06:50:32;97434.31;;;22.19;100.00
7614;BME280;3848;42.016;23.098;2023-09-08T06:53:00;97430.38;;;22.29;100.00
7614;BME280;3848;42.016;23.098;2023-09-08T06:55:27;97435.06;;;22.38;100.00
7614;BME280;3848;42.016;23.098;2023-09-08T06:57:54;97424.56;;;22.41;100.00
7614;BME280;3848;42.016;23.098;2023-09-08T07:00:20;97427.38;;;22.54;100.00
7614;BME280;3848;42.016;23.098;2023-09-08T07:02:47;97435.50;;;22.64;100.00
7614;BME280;3848;42.016;23.098;2023-09-08T07:05:15;97432.28;;;22.76;100.00
7614;BME280;3848;42.016;23.098;2023-09-08T07:07:42;97437.22;;;22.80;100.00
7614;BME280;3848;42.016;23.098;2023-09-08T07:10:11;97415.59;;;22.81;100.00
7614;BME280;3848;42.016;23.098;2023-09-08T07:12:38;97431.94;;;22.99;100.00
7614;BME280;3848;42.016;23.098;2023-09-08T07:15:05;97436.03;;;23.03;100.00
7614;BME280;3848;42.016;23.098;2023-09-08T07:17:33;97431.34;;;23.10;100.00
7614;BME280;3848;42.016;23.098;2023-09-08T07:20:00;97430.03;;;23.19;100.00
7614;BME280;3848;42.016;23.098;2023-09-08T07:22:28;97427.84;;;23.27;100.00
7614;BME280;3848;42.016;23.098;2023-09-08T07:24:54;97430.97;;;23.33;100.00
7614;BME280;3848;42.016;23.098;2023-09-08T07:27:22;97436.38;;;23.45;100.00
7614;BME280;3848;42.016;23.098;2023-09-08T07:29:49;97430.84;;;23.51;96.55
7614;BME280;3848;42.016;23.098;2023-09-08T07:32:16;97429.03;;;23.68;91.48
7614;BME280;3848;42.016;23.098;2023-09-08T07:34:43;97428.53;;;23.78;90.80
7614;BME280;3848;42.016;23.098;2023-09-08T07:37:10;97419.66;;;23.82;90.54
7614;BME280;3848;42.016;23.098;2023-09-08T07:39:37;97413.25;;;23.87;91.30
7614;BME280;3848;42.016;23.098;2023-09-08T07:42:04;97414.91;;;24.04;84.41
7614;BME280;3848;42.016;23.098;2023-09-08T07:44:32;97405.16;;;24.08;86.56
7614;BME280;3848;42.016;23.098;2023-09-08T07:46:59;97416.16;;;24.27;86.15
7614;BME280;3848;42.016;23.098;2023-09-08T07:49:25;97414.56;;;24.40;80.05
7614;BME280;3848;42.016;23.098;2023-09-08T07:51:52;97412.44;;;24.47;82.49
7614;BME280;3848;42.016;23.098;2023-09-08T07:54:19;97406.84;;;24.53;79.93
7614;BME280;3848;42.016;23.098;2023-09-08T07:56:46;97392.28;;;24.50;78.79
7614;BME280;3848;42.016;23.098;2023-09-08T07:59:12;97400.75;;;24.68;81.02
7614;BME280;3848;42.016;23.098;2023-09-08T08:01:41;97401.88;;;24.78;77.74
7614;BME280;3848;42.016;23.098;2023-09-08T08:04:07;97391.09;;;24.84;73.76
7614;BME280;3848;42.016;23.098;2023-09-08T08:06:34;97400.41;;;25.03;71.27
7614;BME280;3848;42.016;23.098;2023-09-08T08:09:01;97387.00;;;25.09;71.26
7614;BME280;3848;42.016;23.098;2023-09-08T08:11:28;97384.28;;;25.25;71.84
7614;BME280;3848;42.016;23.098;2023-09-08T08:13:55;97384.53;;;25.34;70.10
7614;BME280;3848;42.016;23.098;2023-09-08T08:16:22;97381.47;;;25.42;70.62
7614;BME280;3848;42.016;23.098;2023-09-08T08:18:51;97379.50;;;25.58;67.45
7614;BME280;3848;42.016;23.098;2023-09-08T08:21:18;97387.22;;;25.74;62.69
7614;BME280;3848;42.016;23.098;2023-09-08T08:23:45;97366.16;;;25.77;66.89
7614;BME280;3848;42.016;23.098;2023-09-08T08:26:11;97388.19;;;25.98;63.44
7614;BME280;3848;42.016;23.098;2023-09-08T08:28:38;97387.06;;;26.02;60.13
7614;BME280;3848;42.016;23.098;2023-09-08T08:31:05;97384.78;;;26.10;61.79
7614;BME280;3848;42.016;23.098;2023-09-08T08:33:32;97378.34;;;26.16;59.33
7614;BME280;3848;42.016;23.098;2023-09-08T08:36:01;97376.69;;;26.28;60.57
7614;BME280;3848;42.016;23.098;2023-09-08T08:38:28;97321.41;;;25.97;60.30
7614;BME280;3848;42.016;23.098;2023-09-08T08:40:54;97380.16;;;26.41;58.63
7614;BME280;3848;42.016;23.098;2023-09-08T08:43:21;97359.63;;;26.36;56.69
7614;BME280;3848;42.016;23.098;2023-09-08T08:45:50;97374.22;;;26.52;59.91
7614;BME280;3848;42.016;23.098;2023-09-08T08:48:18;97333.94;;;26.30;58.80
7614;BME280;3848;42.016;23.098;2023-09-08T08:50:47;97379.19;;;26.80;59.59
7614;BME280;3848;42.016;23.098;2023-09-08T08:53:17;97294.78;;;26.45;55.14
7614;BME280;3848;42.016;23.098;2023-09-08T08:55:44;97374.56;;;26.96;52.98
7614;BME280;3848;42.016;23.098;2023-09-08T08:58:12;97381.41;;;27.23;50.73
7614;BME280;3848;42.016;23.098;2023-09-08T09:00:40;97368.50;;;27.45;50.04
7614;BME280;3848;42.016;23.098;2023-09-08T09:03:09;97357.06;;;27.83;48.19
7614;BME280;3848;42.016;23.098;2023-09-08T09:05:36;97353.66;;;27.93;47.05
7614;BME280;3848;42.016;23.098;2023-09-08T09:08:04;97356.91;;;28.19;47.16
7614;BME280;3848;42.016;23.098;2023-09-08T09:10:33;97351.41;;;28.69;47.07
7614;BME280;3848;42.016;23.098;2023-09-08T09:13:00;97350.91;;;29.08;45.11
7614;BME280;3848;42.016;23.098;2023-09-08T09:15:30;97346.72;;;29.28;44.68
7614;BME280;3848;42.016;23.098;2023-09-08T09:18:06;97334.31;;;29.30;43.62
7614;BME280;3848;42.016;23.098;2023-09-08T09:20:34;97329.19;;;29.40;43.16
7614;BME280;3848;42.016;23.098;2023-09-08T09:23:00;97308.25;;;29.29;43.17
7614;BME280;3848;42.016;23.098;2023-09-08T09:25:30;97317.28;;;29.47;43.95
7614;BME280;3848;42.016;23.098;2023-09-08T09:27:59;97314.13;;;29.64;43.23
7614;BME280;3848;42.016;23.098;2023-09-08T09:30:27;97322.38;;;29.81;42.66
7614;BME280;3848;42.016;23.098;2023-09-08T09:33:02;97313.59;;;29.91;42.09
7614;BME280;3848;42.016;23.098;2023-09-08T09:35:42;97305.06;;;30.10;42.64
7614;BME280;3848;42.016;23.098;2023-09-08T09:38:09;97292.47;;;30.25;42.64
7614;BME280;3848;42.016;23.098;2023-09-08T09:40:37;97294.06;;;30.47;44.56
7614;BME280;3848;42.016;23.098;2023-09-08T09:43:08;97295.75;;;30.57;44.20
7614;BME280;3848;42.016;23.098;2023-09-08T09:45:35;97309.81;;;30.77;43.22
7614;BME280;3848;42.016;23.098;2023-09-08T09:48:03;97296.31;;;30.91;43.24
7614;BME280;3848;42.016;23.098;2023-09-08T09:50:31;97290.00;;;31.13;43.01
7614;BME280;3848;42.016;23.098;2023-09-08T09:52:59;97274.28;;;31.33;42.97
7614;BME280;3848;42.016;23.098;2023-09-08T09:55:27;97281.06;;;31.54;40.67
7614;BME280;3848;42.016;23.098;2023-09-08T09:57:56;97274.53;;;31.59;41.25
7614;BME280;3848;42.016;23.098;2023-09-08T10:00:25;97255.88;;;31.71;40.82
7614;BME280;3848;42.016;23.098;2023-09-08T10:02:52;97265.00;;;32.24;40.72
7614;BME280;3848;42.016;23.098;2023-09-08T10:05:19;97262.94;;;32.37;39.91
7614;BME280;3848;42.016;23.098;2023-09-08T10:07:47;97234.44;;;32.32;39.30
7614;BME280;3848;42.016;23.098;2023-09-08T10:10:15;97249.84;;;32.55;39.67
7614;BME280;3848;42.016;23.098;2023-09-08T10:12:43;97238.75;;;32.79;38.53
7614;BME280;3848;42.016;23.098;2023-09-08T10:15:10;97241.59;;;33.13;39.32
7614;BME280;3848;42.016;23.098;2023-09-08T10:17:40;97245.84;;;33.31;37.14
7614;BME280;3848;42.016;23.098;2023-09-08T10:20:08;97235.56;;;33.20;37.22
7614;BME280;3848;42.016;23.098;2023-09-08T10:22:39;97222.56;;;33.19;37.37
7614;BME280;3848;42.016;23.098;2023-09-08T10:25:08;97223.28;;;33.29;37.78
7614;BME280;3848;42.016;23.098;2023-09-08T10:27:36;97219.91;;;33.54;37.56
7614;BME280;3848;42.016;23.098;2023-09-08T10:30:05;97227.97;;;33.79;36.37
7614;BME280;3848;42.016;23.098;2023-09-08T10:32:33;97233.72;;;33.74;35.26
7614;BME280;3848;42.016;23.098;2023-09-08T10:35:04;97231.47;;;34.05;36.42
7614;BME280;3848;42.016;23.098;2023-09-08T10:37:31;97218.31;;;34.47;35.97
7614;BME280;3848;42.016;23.098;2023-09-08T10:40:20;97220.44;;;34.86;34.97
7614;BME280;3848;42.016;23.098;2023-09-08T10:42:47;97206.09;;;34.97;34.13
7614;BME280;3848;42.016;23.098;2023-09-08T10:45:15;97209.41;;;35.07;35.36
7614;BME280;3848;42.016;23.098;2023-09-08T10:47:55;97213.25;;;35.37;34.03
7614;BME280;3848;42.016;23.098;2023-09-08T10:50:31;97209.78;;;35.44;34.66
7614;BME280;3848;42.016;23.098;2023-09-08T10:53:10;97208.25;;;35.74;33.81
7614;BME280;3848;42.016;23.098;2023-09-08T10:55:42;97206.66;;;36.21;33.58
7614;BME280;3848;42.016;23.098;2023-09-08T10:58:17;97205.00;;;36.20;31.63
7614;BME280;3848;42.016;23.098;2023-09-08T11:00:46;97194.25;;;36.21;32.89
7614;BME280;3848;42.016;23.098;2023-09-08T11:03:13;97196.47;;;36.01;32.04
7614;BME280;3848;42.016;23.098;2023-09-08T11:05:42;97190.09;;;35.88;31.42
7614;BME280;3848;42.016;23.098;2023-09-08T11:08:10;97191.34;;;36.00;32.76
7614;BME280;3848;42.016;23.098;2023-09-08T11:10:37;97192.00;;;36.02;31.72
7614;BME280;3848;42.016;23.098;2023-09-08T11:13:06;97190.38;;;35.93;31.83
7614;BME280;3848;42.016;23.098;2023-09-08T11:15:33;97172.06;;;35.83;31.84
7614;BME280;3848;42.016;23.098;2023-09-08T11:18:09;97159.69;;;35.84;32.21
7614;BME280;3848;42.016;23.098;2023-09-08T11:20:36;97177.94;;;36.10;31.75
7614;BME280;3848;42.016;23.098;2023-09-08T11:23:04;97170.91;;;35.69;31.38
7614;BME280;3848;42.016;23.098;2023-09-08T11:25:32;97169.28;;;35.52;31.51
7614;BME280;3848;42.016;23.098;2023-09-08T11:28:00;97151.91;;;35.58;31.51
7614;BME280;3848;42.016;23.098;2023-09-08T11:30:27;97168.56;;;35.91;32.27
7614;BME280;3848;42.016;23.098;2023-09-08T11:32:54;97164.63;;;36.34;31.11
7614;BME280;3848;42.016;23.098;2023-09-08T11:35:26;97154.88;;;36.57;31.43
7614;BME280;3848;42.016;23.098;2023-09-08T11:37:58;97151.13;;;36.52;31.60
7614;BME280;3848;42.016;23.098;2023-09-08T11:40:27;97152.84;;;36.68;30.84
7614;BME280;3848;42.016;23.098;2023-09-08T11:42:54;97117.09;;;36.63;30.23
7614;BME280;3848;42.016;23.098;2023-09-08T11:45:21;97152.09;;;37.05;30.46
7614;BME280;3848;42.016;23.098;2023-09-08T11:47:49;97147.31;;;37.23;30.03
7614;BME280;3848;42.016;23.098;2023-09-08T11:50:18;97148.03;;;37.54;29.73
7614;BME280;3848;42.016;23.098;2023-09-08T11:52:46;97145.06;;;37.72;29.54
7614;BME280;3848;42.016;23.098;2023-09-08T11:55:14;97130.78;;;36.75;26.02
7614;BME280;3848;42.016;23.098;2023-09-08T11:57:45;97130.06;;;36.27;26.98
7614;BME280;3848;42.016;23.098;2023-09-08T12:00:13;97129.47;;;36.09;26.51
7614;BME280;3848;42.016;23.098;2023-09-08T12:02:43;97134.69;;;36.25;26.81
7614;BME280;3848;42.016;23.098;2023-09-08T12:05:13;97140.09;;;36.40;26.87
7614;BME280;3848;42.016;23.098;2023-09-08T12:07:40;97138.19;;;35.70;26.16
7614;BME280;3848;42.016;23.098;2023-09-08T12:10:09;97121.88;;;35.26;26.23
7614;BME280;3848;42.016;23.098;2023-09-08T12:12:43;97120.34;;;34.67;26.96
7614;BME280;3848;42.016;23.098;2023-09-08T12:15:10;97130.91;;;34.67;26.67
7614;BME280;3848;42.016;23.098;2023-09-08T12:17:47;97126.97;;;34.71;26.83
7614;BME280;3848;42.016;23.098;2023-09-08T12:20:14;97133.34;;;34.44;26.77
7614;BME280;3848;42.016;23.098;2023-09-08T12:22:48;97122.63;;;34.53;27.29
7614;BME280;3848;42.016;23.098;2023-09-08T12:25:15;97108.16;;;34.58;26.70
7614;BME280;3848;42.016;23.098;2023-09-08T12:27:44;97089.34;;;34.61;26.76
7614;BME280;3848;42.016;23.098;2023-09-08T12:30:16;97095.28;;;34.71;27.39
7614;BME280;3848;42.016;23.098;2023-09-08T12:32:46;97128.34;;;34.99;27.27
7614;BME280;3848;42.016;23.098;2023-09-08T12:35:19;97113.31;;;35.08;27.25
7614;BME280;3848;42.016;23.098;2023-09-08T12:37:53;97119.41;;;35.08;27.09
7614;BME280;3848;42.016;23.098;2023-09-08T12:40:19;97121.88;;;34.94;26.91
7614;BME280;3848;42.016;23.098;2023-09-08T12:42:48;97123.97;;;34.74;27.03
7614;BME280;3848;42.016;23.098;2023-09-08T12:45:15;97094.59;;;34.36;27.63
7614;BME280;3848;42.016;23.098;2023-09-08T12:47:42;97122.88;;;34.26;27.67
7614;BME280;3848;42.016;23.098;2023-09-08T12:50:10;97117.75;;;34.16;27.13
7614;BME280;3848;42.016;23.098;2023-09-08T12:52:38;97133.22;;;34.11;27.68
7614;BME280;3848;42.016;23.098;2023-09-08T12:55:05;97129.25;;;34.07;27.04
7614;BME280;3848;42.016;23.098;2023-09-08T12:57:32;97118.69;;;34.07;27.09
7614;BME280;3848;42.016;23.098;2023-09-08T13:00:01;97119.69;;;34.06;26.85
7614;BME280;3848;42.016;23.098;2023-09-08T13:02:28;97127.91;;;34.03;26.54
7614;BME280;3848;42.016;23.098;2023-09-08T13:04:55;97132.09;;;34.22;27.38
7614;BME280;3848;42.016;23.098;2023-09-08T13:07:22;97116.44;;;34.29;27.30
7614;BME280;3848;42.016;23.098;2023-09-08T13:09:48;97110.91;;;34.48;26.99
7614;BME280;3848;42.016;23.098;2023-09-08T13:12:15;97111.28;;;34.61;26.71